Overview Statistics Trail Chart Weather Telemetry Raw packets
 

This is the latest recevied weather packets stored in our database for station/object WX0ABE-13. If no packets are shown the sender has not sent any weather packets the latest 10 day(s).

<< 92 93 94 95 96 97 98 >>
Time Temp. Humidity Pressure Rain* Wind** Luminosity Snow
1787676479 25.56° C 55% 1024.2 hPa 0 mm - 249 W/m² -
1787676177 25° C 57% 1024.6 hPa 0 mm - 262 W/m² -
1787675870 25° C 58% 1024.2 hPa 0 mm - 287 W/m² -
1787675567 25° C 57% 1024.2 hPa 0 mm - 292 W/m² -
1787675265 24.44° C 60% 1024.4 hPa 0 mm - 288 W/m² -
1787674960 25° C 60% 1024.2 hPa 0 mm - 252 W/m² -
1787674656 25° C 57% 1024.2 hPa 0 mm - 587 W/m² -
1787674351 24.44° C 61% 1024 hPa 0 mm - 551 W/m² -
1787674046 23.89° C 62% 1024.1 hPa 0 mm - 300 W/m² -
1787673741 23.89° C 63% 1024 hPa 0 mm - 288 W/m² -
1787673441 23.89° C 63% 1023.9 hPa 0 mm - 209 W/m² -
1787673135 23.89° C 63% 1024 hPa 0 mm - 215 W/m² -
1787672835 23.89° C 63% 1023.8 hPa 0 mm - 202 W/m² -
1787672532 23.89° C 61% 1024 hPa 0 mm - 179 W/m² -
1787672230 25° C 59% 1024 hPa 0 mm - 298 W/m² -
1787671929 25° C 61% 1023.9 hPa 0 mm - 363 W/m² -
1787671626 24.44° C 63% 1024 hPa 0 mm - 409 W/m² -
1787671325 24.44° C 61% 1024.1 hPa 0 mm - 379 W/m² -
1787671021 24.44° C 62% 1024.1 hPa 0 mm - 314 W/m² -
1787670716 24.44° C 62% 1024.1 hPa 0 mm - 224 W/m² -
1787670416 23.33° C 64% 1024.1 hPa 0 mm - 181 W/m² -
1787670116 23.33° C 68% 1024.2 hPa 0 mm - 299 W/m² -
1787669815 22.78° C 69% 1023.9 hPa 0 mm - 273 W/m² -
1787669510 22.78° C 68% 1023.9 hPa 0 mm - 117 W/m² -
1787669206 22.78° C 68% 1024 hPa 0 mm - 301 W/m² -

* Rain latest hour (hover to see other rain measurements)
** Current wind speed in m/s (hover to see current wind gust speed)